createdAt,value
2023-04-30T00:01:30.976Z,1017.10
2023-04-30T00:06:38.289Z,1017.11
2023-04-30T00:11:45.548Z,1017.07
2023-04-30T00:16:52.867Z,1017.09
2023-04-30T00:22:00.293Z,1017.13
2023-04-30T00:27:45.431Z,1017.13
2023-04-30T00:39:42.868Z,1017.03
2023-04-30T00:45:35.438Z,1017.05
2023-04-30T00:51:25.981Z,1016.99
2023-04-30T00:57:34.246Z,1016.95
2023-04-30T01:04:02.849Z,1016.94
2023-04-30T01:09:50.474Z,1016.92
2023-04-30T01:22:20.564Z,1016.93
2023-04-30T01:28:12.172Z,1016.97
2023-04-30T01:33:58.988Z,1017.04
2023-04-30T01:39:46.319Z,1017.06
2023-04-30T01:45:00.488Z,1017.03
2023-04-30T01:50:40.932Z,1017.05
2023-04-30T01:56:24.199Z,1017.02
2023-04-30T02:07:05.702Z,1017.02
2023-04-30T02:08:29.572Z,1017.02
2023-04-30T02:12:17.501Z,1017.01
2023-04-30T02:17:46.733Z,1016.96
2023-04-30T02:23:09.823Z,1016.94
2023-04-30T02:28:17.711Z,1016.98
2023-04-30T02:34:15.477Z,1017.03
2023-04-30T02:39:23.031Z,1017.00
2023-04-30T02:44:40.249Z,1016.96
2023-04-30T02:50:01.008Z,1016.95
2023-04-30T02:55:43.344Z,1016.90
2023-04-30T03:00:50.938Z,1016.82
2023-04-30T03:05:58.834Z,1016.83
2023-04-30T03:13:14.105Z,1016.82
2023-04-30T03:16:49.579Z,1016.79
2023-04-30T03:22:47.284Z,1016.78
2023-04-30T03:28:29.591Z,1016.78
2023-04-30T03:34:12.025Z,1016.73
2023-04-30T03:39:29.853Z,1016.71
2023-04-30T03:44:40.427Z,1016.70
2023-04-30T03:50:27.799Z,1016.63
2023-04-30T03:56:13.029Z,1016.63
2023-04-30T04:01:20.691Z,1016.62
2023-04-30T04:06:28.468Z,1016.59
2023-04-30T04:11:36.136Z,1016.59
2023-04-30T04:16:43.991Z,1016.68
2023-04-30T04:21:51.882Z,1016.71
2023-04-30T04:26:59.568Z,1016.81
2023-04-30T04:32:07.717Z,1016.81
2023-04-30T04:37:50.092Z,1016.87
2023-04-30T04:43:09.828Z,1016.86
2023-04-30T04:52:26.161Z,1016.89
2023-04-30T04:53:31.184Z,1016.89
2023-04-30T04:58:44.761Z,1016.86
2023-04-30T05:04:17.756Z,1016.93
2023-04-30T05:09:59.124Z,1016.94
2023-04-30T05:15:41.412Z,1016.94
2023-04-30T05:20:57.402Z,1017.00
2023-04-30T05:26:05.123Z,1016.98
2023-04-30T05:31:22.305Z,1017.00
2023-04-30T05:36:32.409Z,1016.93
2023-04-30T05:41:39.906Z,1016.98
2023-04-30T05:46:47.366Z,1016.98
2023-04-30T05:51:54.915Z,1017.03
2023-04-30T05:57:11.076Z,1016.97
2023-04-30T06:02:26.295Z,1016.95
2023-04-30T06:07:46.306Z,1016.99
2023-04-30T06:12:53.787Z,1016.98
2023-04-30T06:18:05.998Z,1016.90
2023-04-30T06:23:13.322Z,1017.00
2023-04-30T06:28:38.228Z,1017.08
2023-04-30T06:33:40.973Z,1017.14
2023-04-30T06:38:55.004Z,1017.12
2023-04-30T06:44:14.851Z,1017.10
2023-04-30T06:49:18.876Z,1017.04
2023-04-30T06:54:49.794Z,1017.00
2023-04-30T06:59:59.014Z,1016.96
2023-04-30T07:05:06.585Z,1016.91
2023-04-30T07:10:14.260Z,1016.92
2023-04-30T07:15:39.609Z,1016.90
2023-04-30T07:20:34.516Z,1016.87
2023-04-30T07:26:17.186Z,1016.80
2023-04-30T07:31:59.889Z,1016.80
2023-04-30T07:38:04.268Z,1016.81
2023-04-30T07:43:11.531Z,1016.79
2023-04-30T07:48:18.754Z,1016.74
2023-04-30T07:53:25.997Z,1016.68
2023-04-30T07:58:33.236Z,1016.66
2023-04-30T08:03:40.765Z,1016.64
2023-04-30T08:08:48.825Z,1016.62
2023-04-30T08:13:55.301Z,1016.65
2023-04-30T08:19:02.516Z,1016.62
2023-04-30T08:24:16.009Z,1016.57
2023-04-30T08:29:23.396Z,1016.53
2023-04-30T08:34:30.613Z,1016.57
2023-04-30T08:39:37.770Z,1016.51
2023-04-30T08:44:45.077Z,1016.54
2023-04-30T08:49:52.572Z,1016.52
2023-04-30T08:54:59.533Z,1016.45
2023-04-30T09:00:06.978Z,1016.36
2023-04-30T09:05:14.342Z,1016.43
2023-04-30T09:10:21.439Z,1016.40
2023-04-30T09:15:28.630Z,1016.44
2023-04-30T09:20:35.851Z,1016.40
2023-04-30T09:25:43.044Z,1016.37
2023-04-30T09:30:50.288Z,1016.41
2023-04-30T09:35:57.622Z,1016.38
2023-04-30T09:41:05.053Z,1016.34
2023-04-30T09:46:12.255Z,1016.32
2023-04-30T09:51:19.682Z,1016.30
2023-04-30T09:56:26.905Z,1016.35
2023-04-30T10:01:34.103Z,1016.31
2023-04-30T10:06:41.557Z,1016.23
2023-04-30T10:11:48.482Z,1016.14
2023-04-30T10:16:55.723Z,1016.11
2023-04-30T10:22:02.874Z,1016.08
2023-04-30T10:27:10.121Z,1016.05
2023-04-30T10:32:17.468Z,1015.97
2023-04-30T10:37:24.558Z,1015.95
2023-04-30T10:42:31.705Z,1015.86
2023-04-30T10:47:38.892Z,1015.79
2023-04-30T10:52:46.085Z,1015.74
2023-04-30T10:57:53.234Z,1015.67
2023-04-30T11:03:00.454Z,1015.67
2023-04-30T11:08:07.648Z,1015.62
2023-04-30T11:13:14.822Z,1015.51
2023-04-30T11:18:22.023Z,1015.47
2023-04-30T11:23:39.401Z,1015.44
2023-04-30T11:28:36.494Z,1015.45
2023-04-30T11:33:43.657Z,1015.44
2023-04-30T11:38:50.943Z,1015.42
2023-04-30T11:43:58.113Z,1015.37
2023-04-30T11:49:05.297Z,1015.27
2023-04-30T11:54:12.530Z,1015.17
2023-04-30T11:59:19.693Z,1015.11
2023-04-30T12:04:26.890Z,1015.09
2023-04-30T12:09:34.366Z,1015.16
2023-04-30T12:14:41.523Z,1015.09
2023-04-30T12:19:48.720Z,1015.05
2023-04-30T12:24:56.012Z,1014.98
2023-04-30T12:30:03.112Z,1014.81
2023-04-30T12:35:10.268Z,1014.83
2023-04-30T12:40:17.459Z,1014.77
2023-04-30T12:45:24.632Z,1014.80
2023-04-30T12:50:31.821Z,1014.75
2023-04-30T12:55:39.062Z,1014.68
2023-04-30T13:00:46.204Z,1014.67
2023-04-30T13:05:53.373Z,1014.68
2023-04-30T13:11:00.561Z,1014.56
2023-04-30T13:16:07.842Z,1014.59
2023-04-30T13:21:14.938Z,1014.64
2023-04-30T13:26:22.165Z,1014.51
2023-04-30T13:31:29.462Z,1014.49
2023-04-30T13:36:36.628Z,1014.49
2023-04-30T13:41:43.966Z,1014.42
2023-04-30T13:46:51.220Z,1014.34
2023-04-30T13:51:58.449Z,1014.39
2023-04-30T13:57:05.759Z,1014.31
2023-04-30T14:02:12.978Z,1014.30
2023-04-30T14:07:20.248Z,1014.30
2023-04-30T14:12:27.515Z,1014.30
2023-04-30T14:17:34.724Z,1014.30
2023-04-30T14:22:41.860Z,1014.31
2023-04-30T14:27:49.166Z,1014.28
2023-04-30T14:32:56.356Z,1014.35
2023-04-30T14:38:03.511Z,1014.28
2023-04-30T14:43:10.735Z,1014.25
2023-04-30T14:48:17.951Z,1014.24
2023-04-30T14:53:25.146Z,1014.19
2023-04-30T14:58:32.389Z,1014.17
2023-04-30T15:03:39.685Z,1014.15
2023-04-30T15:08:46.846Z,1014.11
2023-04-30T15:13:54.047Z,1014.05
2023-04-30T15:19:01.192Z,1014.06
2023-04-30T15:24:08.398Z,1014.04
2023-04-30T15:29:15.602Z,1014.08
2023-04-30T15:34:22.773Z,1014.03
2023-04-30T15:39:29.943Z,1014.02
2023-04-30T15:44:37.221Z,1013.94
2023-04-30T15:49:44.413Z,1013.94
2023-04-30T15:54:51.693Z,1013.93
2023-04-30T15:59:59.026Z,1014.00
2023-04-30T16:05:06.177Z,1013.96
2023-04-30T16:10:13.546Z,1014.06
2023-04-30T16:15:20.875Z,1014.04
2023-04-30T16:20:28.223Z,1014.01
2023-04-30T16:25:35.466Z,1014.02
2023-04-30T16:30:42.715Z,1014.04
2023-04-30T16:35:49.890Z,1014.00
2023-04-30T16:40:57.083Z,1014.02
2023-04-30T16:46:04.697Z,1014.00
2023-04-30T16:51:11.945Z,1014.06
2023-04-30T16:56:19.141Z,1014.05
2023-04-30T17:01:26.379Z,1014.06
2023-04-30T17:06:33.678Z,1014.11
2023-04-30T17:11:40.778Z,1014.13
2023-04-30T17:16:48.349Z,1014.21
2023-04-30T17:21:55.715Z,1014.21
2023-04-30T17:27:02.982Z,1014.26
2023-04-30T17:32:10.581Z,1014.28
2023-04-30T17:37:17.926Z,1014.32
2023-04-30T17:42:25.478Z,1014.28
2023-04-30T17:47:32.962Z,1014.29
2023-04-30T17:52:40.318Z,1014.31
2023-04-30T17:57:47.820Z,1014.37
2023-04-30T18:02:55.282Z,1014.43
2023-04-30T18:08:02.504Z,1014.42
2023-04-30T18:13:10.051Z,1014.42
2023-04-30T18:18:17.471Z,1014.42
2023-04-30T18:23:25.068Z,1014.44
2023-04-30T18:28:32.506Z,1014.41
2023-04-30T18:33:39.741Z,1014.50
2023-04-30T18:38:47.213Z,1014.51
2023-04-30T18:43:54.909Z,1014.57
2023-04-30T18:49:02.410Z,1014.66
2023-04-30T18:54:09.926Z,1014.72
2023-04-30T18:59:17.204Z,1014.76
2023-04-30T19:04:24.466Z,1014.83
2023-04-30T19:09:31.886Z,1014.85
2023-04-30T19:14:39.313Z,1014.88
2023-04-30T19:19:46.890Z,1014.90
2023-04-30T19:24:54.603Z,1014.95
2023-04-30T19:30:02.241Z,1015.00
2023-04-30T19:35:10.466Z,1014.99
2023-04-30T19:40:18.776Z,1015.03
2023-04-30T19:45:26.497Z,1015.06
2023-04-30T19:50:33.931Z,1015.07
2023-04-30T19:55:41.512Z,1015.09
2023-04-30T20:00:48.763Z,1015.07
2023-04-30T20:05:56.417Z,1015.06
2023-04-30T20:11:04.060Z,1015.07
2023-04-30T20:16:11.038Z,1015.12
2023-04-30T20:21:20.571Z,1015.11
2023-04-30T20:26:26.184Z,1015.17
2023-04-30T20:31:34.508Z,1015.09
2023-04-30T20:36:41.796Z,1015.12
2023-04-30T20:41:49.153Z,1015.13
2023-04-30T20:46:56.818Z,1015.12
2023-04-30T20:52:04.430Z,1015.15
2023-04-30T20:57:11.808Z,1015.13
2023-04-30T21:02:19.122Z,1015.11
2023-04-30T21:07:26.395Z,1015.13
2023-04-30T21:12:33.667Z,1015.12
2023-04-30T21:17:41.022Z,1015.09
2023-04-30T21:22:48.330Z,1015.08
2023-04-30T21:27:55.532Z,1015.12
2023-04-30T21:33:02.833Z,1015.12
2023-04-30T21:38:10.161Z,1015.13
2023-04-30T21:43:17.390Z,1015.08
2023-04-30T21:48:24.666Z,1015.15
2023-04-30T21:53:32.071Z,1015.08
2023-04-30T21:58:39.333Z,1015.11
2023-04-30T22:03:46.554Z,1015.07
2023-04-30T22:08:53.818Z,1015.06
2023-04-30T22:14:00.988Z,1015.03
2023-04-30T22:19:08.216Z,1015.00
2023-04-30T22:24:15.461Z,1015.03
2023-04-30T22:29:22.710Z,1015.03
2023-04-30T22:34:29.971Z,1015.04
2023-04-30T22:39:37.226Z,1015.03
2023-04-30T22:44:44.375Z,1015.03
2023-04-30T22:49:51.563Z,1015.03
2023-04-30T22:54:58.760Z,1015.02
2023-04-30T23:00:05.935Z,1015.02
2023-04-30T23:05:13.139Z,1014.98
2023-04-30T23:10:20.446Z,1014.95
2023-04-30T23:15:27.688Z,1015.00
2023-04-30T23:20:34.881Z,1014.97
2023-04-30T23:25:42.179Z,1015.00
2023-04-30T23:31:24.677Z,1014.94
2023-04-30T23:36:33.103Z,1014.92
2023-04-30T23:42:16.903Z,1014.84
2023-04-30T23:48:06.977Z,1014.87
2023-04-30T23:53:49.623Z,1014.82
2023-04-30T23:59:15.055Z,1014.80
